Archival Weather

Al Ahsa

Al Ahsa, Saudi Arabia (OEAH)

Report from: Friday, May 26, 2023 7:00 AM +03
Current time: Friday, July 19, 2024 5:01 AM +03

Current weather – Weather history – Daily summaries
Weather forecast

Temperature32.0°C (89.6°F)
Heat index30.1°C (86.2°F)
Dew point8.0°C (46.4°F)
Winds 3 kts (1.5 m/s, 3.5 mph) South-Southwest (210°)
Clouds Sky clear
Altimeter29.80 in.Hg (1009 mB)
Relative humidity23 %
Density altitude2,239 ft. (682 m)
Remarks Ceiling and visibility OK
No significant changes expected in the next two hours
Flight conditions Visual Meteorological Conditions
Raw dataOEAH 260400Z 21003KT CAVOK 32/08 Q1009 NOSIG
An error has occurred. This application may no longer respond until reloaded. Reload 🗙